Terminal Aerodrome Forecast
Issued by NWS Wilmington, NC

Home | Current Version | Previous Version | Text Only | Print | Product List | Glossary On
Versions: 1 2 3 4 5 6 7 8 9 10 11 12 13 14 15
937
FTUS42 KILM 301120
TAFLBT
TAF
KLBT 301120Z 3012/3112 24004KT P6SM BKN150
     FM301400 25007KT P6SM FEW060
     FM301800 21009KT P6SM VCTS SCT050CB
     FM310000 19003KT P6SM FEW050 SCT250=

USA.gov is the U.S. government's official web portal to all federal, state and local government web resources and services.